Time;durP1;ratioP1;P1;durP2;ratioP2;P2;SDS_P1;SDS_P2;PMS_P1;PMS_P2;Temp;Humidity;BMP_temperature;BMP_pressure;BME280_temperature;BME280_humidity;BME280_pressure;Samples;Min_cycle;Max_cycle;Signal;HPM_P1;HPM_P2
2022/08/27 00:01:24;;;;;;;7.60;2.42;;;17.40;99.90;;;;;;4173540;28;20168;-91
2022/08/27 00:03:24;;;;;;;6.35;2.33;;;17.20;99.90;;;;;;4189221;28;20176;-93
2022/08/27 00:05:25;;;;;;;11.20;2.33;;;17.30;99.90;;;;;;4172990;28;20227;-94
2022/08/27 00:07:26;;;;;;;9.70;2.42;;;17.30;99.90;;;;;;4188299;28;20202;-92
2022/08/27 00:09:27;;;;;;;9.20;2.70;;;17.30;99.90;;;;;;4168965;28;20208;-93
2022/08/27 00:11:28;;;;;;;15.77;2.55;;;17.20;99.90;;;;;;4171442;28;20666;-92
2022/08/27 00:13:29;;;;;;;8.80;2.45;;;17.20;99.90;;;;;;4185167;28;20171;-95
2022/08/27 00:15:31;;;;;;;11.82;2.83;;;17.40;99.90;;;;;;4172436;28;20256;-92
2022/08/27 00:17:34;;;;;;;9.70;2.30;;;17.40;99.90;;;;;;4189956;28;20218;-95
2022/08/27 00:19:35;;;;;;;9.48;2.40;;;17.20;99.90;;;;;;4171390;28;20180;-94
2022/08/27 00:21:37;;;;;;;5.07;2.47;;;17.10;99.90;;;;;;4175435;28;20670;-93
2022/08/27 00:23:39;;;;;;;4.85;2.35;;;17.10;99.90;;;;;;4175872;28;20188;-93
2022/08/27 00:25:40;;;;;;;14.05;2.53;;;17.10;99.90;;;;;;4193880;28;20218;-93
2022/08/27 00:27:40;;;;;;;9.75;2.50;;;17.20;99.90;;;;;;4193119;28;20184;-94
2022/08/27 00:29:41;;;;;;;9.25;2.78;;;17.20;99.90;;;;;;4178311;28;20220;-92
2022/08/27 00:31:42;;;;;;;10.95;2.67;;;17.30;99.90;;;;;;4178420;28;20641;-95
2022/08/27 00:33:46;;;;;;;15.48;3.55;;;17.20;99.90;;;;;;4177212;28;20180;-92
2022/08/27 00:35:47;;;;;;;8.27;2.17;;;17.20;99.90;;;;;;4195468;28;20640;-96
2022/08/27 00:37:49;;;;;;;10.18;2.45;;;17.20;99.90;;;;;;4190615;28;20190;-94
2022/08/27 00:39:49;;;;;;;8.73;2.42;;;17.20;99.90;;;;;;4176983;28;20203;-95
2022/08/27 00:41:54;;;;;;;9.45;2.42;;;17.30;99.90;;;;;;4189635;28;20273;-95
2022/08/27 00:44:11;;;;;;;6.90;2.47;;;17.50;99.90;;;;;;4190040;28;20175;-94
2022/08/27 00:46:45;;;;;;;9.50;2.53;;;17.70;99.90;;;;;;4195799;28;20223;-94
2022/08/27 00:48:47;;;;;;;11.82;2.22;;;17.80;99.90;;;;;;4192780;28;20190;-93
2022/08/27 00:50:51;;;;;;;7.63;2.58;;;17.80;99.90;;;;;;4188805;28;20163;-94
2022/08/27 00:52:58;;;;;;;9.02;2.53;;;17.90;99.90;;;;;;4173304;28;20172;-93
2022/08/27 00:55:05;;;;;;;6.63;2.50;;;17.80;99.90;;;;;;4187487;28;20172;-93
2022/08/27 00:57:06;;;;;;;9.40;2.40;;;17.70;99.90;;;;;;4171249;28;20191;-93
2022/08/27 00:59:07;;;;;;;8.82;2.45;;;17.70;99.90;;;;;;4187946;28;20200;-93
2022/08/27 01:01:12;;;;;;;7.80;2.05;;;17.80;99.90;;;;;;4170945;28;20179;-94
2022/08/27 01:03:14;;;;;;;8.85;2.60;;;17.70;99.90;;;;;;4185828;28;20260;-93
2022/08/27 01:05:24;;;;;;;8.23;2.30;;;17.80;99.90;;;;;;4190939;28;20207;-93
2022/08/27 01:07:28;;;;;;;12.88;2.53;;;17.90;99.90;;;;;;4171078;28;20271;-92
2022/08/27 01:09:33;;;;;;;11.50;2.40;;;17.80;99.90;;;;;;4174229;28;20220;-93
2022/08/27 01:11:33;;;;;;;6.30;2.42;;;17.90;99.90;;;;;;4171183;28;20172;-92
2022/08/27 01:13:36;;;;;;;6.93;2.53;;;17.90;99.90;;;;;;4191110;28;20177;-94
2022/08/27 01:15:39;;;;;;;10.05;3.08;;;17.70;99.90;;;;;;4172693;28;20168;-93
2022/08/27 01:17:42;;;;;;;9.68;2.90;;;17.70;99.90;;;;;;4191222;28;20195;-95
2022/08/27 01:19:49;;;;;;;7.90;2.38;;;17.60;99.90;;;;;;4185894;28;20663;-95
2022/08/27 01:22:15;;;;;;;10.35;2.83;;;17.50;99.90;;;;;;4172759;28;20176;-94
2022/08/27 01:24:37;;;;;;;8.02;2.47;;;17.40;99.90;;;;;;4190312;28;20217;-96
2022/08/27 01:26:38;;;;;;;5.90;2.20;;;17.30;99.90;;;;;;4193214;28;20179;-96
2022/08/27 01:28:41;;;;;;;9.88;2.47;;;17.10;99.90;;;;;;4188991;28;20195;-94
2022/08/27 01:30:42;;;;;;;12.30;2.45;;;17.20;99.90;;;;;;4189227;28;20239;-96
2022/08/27 01:32:44;;;;;;;7.88;2.17;;;17.10;99.90;;;;;;4190207;28;20171;-93
2022/08/27 01:34:46;;;;;;;9.57;2.67;;;17.20;99.90;;;;;;4174092;28;20326;-95
2022/08/27 01:36:47;;;;;;;13.25;3.00;;;17.10;99.90;;;;;;4187700;28;20360;-94
2022/08/27 01:38:48;;;;;;;9.38;3.13;;;17.10;99.90;;;;;;4173703;28;20188;-92
2022/08/27 01:40:49;;;;;;;10.30;3.00;;;17.00;99.90;;;;;;4175110;28;20172;-92
2022/08/27 01:42:53;;;;;;;11.48;2.70;;;17.10;99.90;;;;;;4176565;28;20187;-93
2022/08/27 01:44:57;;;;;;;9.07;2.78;;;17.30;99.90;;;;;;4192139;28;20198;-96
2022/08/27 01:46:58;;;;;;;9.30;2.92;;;17.30;99.90;;;;;;4169167;28;20170;-93
2022/08/27 01:48:58;;;;;;;12.88;3.10;;;17.20;99.90;;;;;;4188862;28;20599;-93
2022/08/27 01:50:59;;;;;;;5.28;2.75;;;17.10;99.90;;;;;;4189268;28;20179;-93
2022/08/27 01:53:02;;;;;;;7.32;2.90;;;17.10;99.90;;;;;;4173668;28;20619;-92
2022/08/27 01:55:07;;;;;;;12.02;2.85;;;16.90;99.90;;;;;;4173374;28;20199;-95
2022/08/27 01:57:08;;;;;;;10.30;2.85;;;16.90;99.90;;;;;;4188641;28;20175;-92
2022/08/27 01:59:09;;;;;;;5.10;2.40;;;16.80;99.90;;;;;;4186043;28;20188;-92
2022/08/27 02:01:13;;;;;;;5.75;2.65;;;16.80;99.90;;;;;;4169027;28;20183;-96
2022/08/27 02:03:17;;;;;;;10.38;3.20;;;16.90;99.90;;;;;;4187599;28;20163;-92
2022/08/27 02:05:18;;;;;;;11.63;2.83;;;16.90;99.90;;;;;;4172524;28;20270;-93
2022/08/27 02:07:18;;;;;;;6.80;2.72;;;17.00;99.90;;;;;;4188411;28;20714;-94
2022/08/27 02:09:19;;;;;;;8.88;3.50;;;17.00;99.90;;;;;;4170527;28;20211;-91
2022/08/27 02:11:20;;;;;;;11.90;3.17;;;17.00;99.90;;;;;;4173541;28;20143;-92
2022/08/27 02:13:21;;;;;;;5.88;2.85;;;17.10;99.90;;;;;;4186527;28;20175;-95
2022/08/27 02:15:23;;;;;;;10.48;3.40;;;17.10;99.90;;;;;;4190799;28;20175;-96
2022/08/27 02:17:23;;;;;;;10.93;3.00;;;17.10;99.90;;;;;;4189869;28;20258;-92
2022/08/27 02:19:26;;;;;;;8.68;2.80;;;17.00;99.90;;;;;;4191928;28;20265;-94
2022/08/27 02:21:26;;;;;;;6.57;2.60;;;17.00;99.90;;;;;;4185765;28;20190;-93
2022/08/27 02:23:27;;;;;;;7.38;3.10;;;16.90;99.90;;;;;;4186175;28;20198;-96
2022/08/27 02:25:28;;;;;;;8.40;2.53;;;16.70;99.90;;;;;;4184409;28;20215;-95
2022/08/27 02:27:32;;;;;;;8.63;2.75;;;16.60;99.90;;;;;;4169339;28;20633;-92
2022/08/27 02:29:33;;;;;;;5.82;2.97;;;16.50;99.90;;;;;;4185014;28;20230;-95
2022/08/27 02:31:34;;;;;;;8.73;2.90;;;16.30;99.90;;;;;;4183827;28;20693;-92
2022/08/27 02:33:35;;;;;;;13.00;3.42;;;16.10;99.90;;;;;;4184358;28;20183;-93
2022/08/27 02:35:42;;;;;;;8.77;3.17;;;16.00;99.90;;;;;;4183664;28;20176;-92
2022/08/27 02:37:44;;;;;;;11.15;3.20;;;16.20;99.90;;;;;;4166052;28;20169;-92
2022/08/27 02:39:45;;;;;;;9.45;3.30;;;16.30;99.90;;;;;;4184422;28;20206;-92
2022/08/27 02:41:47;;;;;;;6.90;3.13;;;16.40;99.90;;;;;;4185806;28;20181;-93
2022/08/27 02:43:48;;;;;;;10.50;3.30;;;16.50;99.90;;;;;;4170404;28;20195;-92
2022/08/27 02:45:50;;;;;;;9.90;3.47;;;16.70;99.90;;;;;;4171486;28;20204;-91
2022/08/27 02:47:52;;;;;;;10.05;2.83;;;16.70;99.90;;;;;;4170781;28;20183;-92
2022/08/27 02:49:53;;;;;;;7.63;3.13;;;16.70;99.90;;;;;;4171611;28;20301;-95
2022/08/27 02:51:56;;;;;;;10.65;3.00;;;16.60;99.90;;;;;;4186051;28;20214;-95
2022/08/27 02:53:58;;;;;;;8.18;3.25;;;16.50;99.90;;;;;;4191274;28;20164;-94
2022/08/27 02:56:00;;;;;;;8.43;2.88;;;16.60;99.90;;;;;;4187150;28;20176;-91
2022/08/27 02:58:01;;;;;;;5.93;3.00;;;16.60;99.90;;;;;;4171441;28;20230;-93
2022/08/27 03:00:06;;;;;;;5.47;3.08;;;16.60;99.90;;;;;;4170198;28;20262;-92
2022/08/27 03:02:07;;;;;;;7.95;2.97;;;16.60;99.90;;;;;;4187400;28;20167;-92
2022/08/27 03:04:08;;;;;;;9.07;3.00;;;16.60;99.90;;;;;;4170116;28;20180;-91
2022/08/27 03:06:09;;;;;;;8.27;3.10;;;16.60;99.90;;;;;;4166968;28;20664;-91
2022/08/27 03:08:10;;;;;;;8.25;2.72;;;16.60;99.90;;;;;;4168092;28;20169;-92
2022/08/27 03:10:14;;;;;;;7.72;3.10;;;16.50;99.90;;;;;;4169176;28;20239;-91
2022/08/27 03:12:15;;;;;;;6.03;2.92;;;16.50;99.90;;;;;;4188842;28;20210;-92
2022/08/27 03:14:18;;;;;;;7.50;3.75;;;16.50;99.90;;;;;;4186817;28;20164;-92
2022/08/27 03:16:19;;;;;;;7.55;3.38;;;16.50;99.90;;;;;;4167011;28;20176;-91
2022/08/27 03:18:20;;;;;;;11.38;3.25;;;16.50;99.90;;;;;;4185530;28;20207;-92
2022/08/27 03:20:22;;;;;;;12.50;3.58;;;16.60;99.90;;;;;;4168411;28;20177;-91
2022/08/27 03:22:22;;;;;;;9.77;3.38;;;16.60;99.90;;;;;;4184210;28;20253;-90
2022/08/27 03:24:23;;;;;;;9.68;3.35;;;16.60;99.90;;;;;;4183387;28;20647;-91
2022/08/27 03:26:24;;;;;;;11.82;3.38;;;16.50;99.90;;;;;;4173888;28;20254;-94
2022/08/27 03:28:34;;;;;;;11.05;3.60;;;16.60;99.90;;;;;;4192049;28;20186;-94
2022/08/27 03:30:35;;;;;;;13.50;3.67;;;16.50;99.90;;;;;;4170439;22;20239;-93
2022/08/27 03:32:37;;;;;;;6.90;3.42;;;16.40;99.90;;;;;;4162836;28;20185;-94
2022/08/27 03:34:37;;;;;;;9.00;3.08;;;16.40;99.90;;;;;;4160558;28;20165;-92
2022/08/27 03:36:38;;;;;;;9.77;3.35;;;16.30;99.90;;;;;;4142531;28;20232;-93
2022/08/27 03:38:39;;;;;;;10.73;4.03;;;16.20;99.90;;;;;;4145170;28;20146;-95
2022/08/27 03:40:41;;;;;;;9.60;2.88;;;16.10;99.90;;;;;;4146076;28;20177;-92
2022/08/27 03:42:42;;;;;;;5.25;2.97;;;16.20;99.90;;;;;;4109121;28;20182;-96
2022/08/27 03:44:43;;;;;;;8.18;3.20;;;16.30;99.90;;;;;;4138086;28;20194;-92
2022/08/27 03:46:44;;;;;;;9.18;3.40;;;16.20;99.90;;;;;;4148835;28;20174;-95
2022/08/27 03:48:46;;;;;;;11.23;3.92;;;16.20;99.90;;;;;;4141680;28;20325;-95
2022/08/27 03:50:48;;;;;;;11.15;3.42;;;16.10;99.90;;;;;;4146170;28;20621;-95
2022/08/27 03:52:49;;;;;;;10.50;4.00;;;16.10;99.90;;;;;;4124907;28;20278;-96
2022/08/27 03:54:50;;;;;;;9.60;3.80;;;16.00;99.90;;;;;;4139824;28;20186;-92
2022/08/27 03:56:50;;;;;;;8.32;3.83;;;16.10;99.90;;;;;;4128140;28;20198;-95
2022/08/27 03:58:51;;;;;;;10.13;3.42;;;16.10;99.90;;;;;;4138989;28;20196;-95
2022/08/27 04:00:52;;;;;;;11.05;3.90;;;16.00;99.90;;;;;;4136980;28;20177;-96
2022/08/27 04:02:54;;;;;;;8.48;3.40;;;16.00;99.90;;;;;;4118795;28;20181;-95
2022/08/27 04:04:56;;;;;;;10.18;3.70;;;16.10;99.90;;;;;;4118152;28;20206;-95
2022/08/27 04:06:57;;;;;;;9.00;3.13;;;16.00;99.90;;;;;;4134357;28;20635;-92
2022/08/27 04:08:59;;;;;;;8.85;3.40;;;16.10;99.90;;;;;;4133772;28;20830;-95
2022/08/27 04:10:59;;;;;;;6.82;3.53;;;16.00;99.90;;;;;;4120170;28;20321;-96
2022/08/27 04:13:00;;;;;;;7.13;3.60;;;16.10;99.90;;;;;;4154628;28;20173;-94
2022/08/27 04:15:01;;;;;;;10.30;3.70;;;16.10;99.90;;;;;;4122644;28;20177;-91
2022/08/27 04:17:02;;;;;;;8.05;3.38;;;15.90;99.90;;;;;;4123091;28;20328;-95
2022/08/27 04:19:03;;;;;;;9.68;3.85;;;15.90;99.90;;;;;;4152205;28;20709;-91
2022/08/27 04:21:10;;;;;;;11.60;3.97;;;15.90;99.90;;;;;;4120243;28;20180;-93
2022/08/27 04:23:11;;;;;;;10.85;4.85;;;15.90;99.90;;;;;;4140406;28;20272;-92
2022/08/27 04:25:11;;;;;;;11.32;4.15;;;15.90;99.90;;;;;;4151688;28;20204;-92
2022/08/27 04:27:13;;;;;;;8.00;3.78;;;15.80;99.90;;;;;;4141090;28;20189;-92
2022/08/27 04:29:15;;;;;;;12.85;4.18;;;15.80;99.90;;;;;;4141227;28;20253;-93
2022/08/27 04:31:15;;;;;;;12.02;4.40;;;15.70;99.90;;;;;;4160335;28;20172;-92
2022/08/27 04:33:16;;;;;;;10.50;4.20;;;15.70;99.90;;;;;;4144462;28;20168;-92
2022/08/27 04:35:18;;;;;;;12.93;4.43;;;15.80;99.90;;;;;;4144407;28;20237;-92
2022/08/27 04:37:18;;;;;;;9.50;4.18;;;15.80;99.90;;;;;;4160703;28;20203;-96
2022/08/27 04:39:19;;;;;;;8.23;3.80;;;15.80;99.90;;;;;;4137160;28;20202;-94
2022/08/27 04:41:21;;;;;;;7.28;3.80;;;15.80;99.90;;;;;;4125814;28;20154;-95
2022/08/27 04:43:22;;;;;;;7.38;3.53;;;15.80;99.90;;;;;;4125404;28;20264;-92
2022/08/27 04:45:23;;;;;;;14.23;3.90;;;15.70;99.90;;;;;;4129459;28;20699;-92
2022/08/27 04:47:25;;;;;;;6.50;3.60;;;15.60;99.90;;;;;;4141232;28;20177;-92
2022/08/27 04:49:27;;;;;;;7.32;3.90;;;15.60;99.90;;;;;;4124917;28;20689;-94
2022/08/27 04:51:32;;;;;;;8.18;3.97;;;15.50;99.90;;;;;;4162116;28;20177;-92
2022/08/27 04:53:33;;;;;;;16.30;4.30;;;15.50;99.90;;;;;;4146103;28;20180;-94
2022/08/27 04:55:39;;;;;;;8.98;4.50;;;15.50;99.90;;;;;;4142343;28;20165;-92
2022/08/27 04:57:39;;;;;;;11.18;4.82;;;15.40;99.90;;;;;;4159252;28;20176;-91
2022/08/27 04:59:40;;;;;;;11.23;4.63;;;15.40;99.90;;;;;;4141129;28;20241;-95
2022/08/27 05:01:57;;;;;;;10.73;4.40;;;15.30;99.90;;;;;;4160080;28;20157;-92
2022/08/27 05:04:06;;;;;;;9.57;4.50;;;15.30;99.90;;;;;;4159543;28;20169;-92
2022/08/27 05:06:07;;;;;;;9.85;3.97;;;15.40;99.90;;;;;;4157147;28;20219;-93
2022/08/27 05:08:11;;;;;;;11.60;3.88;;;15.50;99.90;;;;;;4124367;28;20178;-93
2022/08/27 05:10:16;;;;;;;9.70;3.97;;;15.60;99.90;;;;;;4159419;28;20188;-91
2022/08/27 05:12:16;;;;;;;8.25;3.67;;;15.60;99.90;;;;;;4160421;28;20164;-93
2022/08/27 05:14:18;;;;;;;14.13;4.43;;;15.60;99.90;;;;;;4127529;28;20166;-92
2022/08/27 05:16:38;;;;;;;7.55;4.28;;;15.60;99.90;;;;;;4158221;28;20184;-92
2022/08/27 05:18:39;;;;;;;10.20;3.97;;;15.60;99.90;;;;;;4124513;28;20185;-91
2022/08/27 05:20:44;;;;;;;8.88;4.18;;;15.60;99.90;;;;;;4126176;28;20178;-92
2022/08/27 05:22:48;;;;;;;8.70;3.13;;;15.60;99.90;;;;;;4157391;28;20195;-91
2022/08/27 05:24:48;;;;;;;8.35;3.95;;;15.60;99.90;;;;;;4143345;28;20688;-91
2022/08/27 05:26:52;;;;;;;8.38;3.78;;;15.50;99.90;;;;;;4124691;28;20186;-93
2022/08/27 05:28:56;;;;;;;7.40;4.10;;;15.50;99.90;;;;;;4154734;28;20189;-91
2022/08/27 05:31:06;;;;;;;11.93;3.90;;;15.50;99.90;;;;;;4129799;28;20678;-92
2022/08/27 05:33:07;;;;;;;17.70;4.55;;;15.60;99.90;;;;;;4140263;28;20165;-92
2022/08/27 05:35:11;;;;;;;9.65;4.53;;;15.60;99.90;;;;;;4158833;28;20161;-92
2022/08/27 05:37:12;;;;;;;12.52;4.68;;;15.70;99.90;;;;;;4124630;28;20174;-93
2022/08/27 05:39:13;;;;;;;9.93;4.68;;;15.60;99.90;;;;;;4139275;28;20241;-91
2022/08/27 05:41:26;;;;;;;10.38;4.88;;;15.70;99.90;;;;;;4159623;28;20204;-91
2022/08/27 05:43:27;;;;;;;10.38;4.90;;;15.80;99.90;;;;;;4124376;28;20215;-92
2022/08/27 05:45:28;;;;;;;10.63;4.68;;;16.00;99.90;;;;;;4142036;28;20275;-93
2022/08/27 05:47:29;;;;;;;10.02;5.00;;;16.00;99.90;;;;;;4142285;28;20169;-91
2022/08/27 05:49:30;;;;;;;8.05;4.30;;;16.20;99.90;;;;;;4138426;28;20198;-91
2022/08/27 05:51:53;;;;;;;12.43;5.35;;;16.30;99.90;;;;;;4141445;28;20182;-91
2022/08/27 05:53:55;;;;;;;14.20;5.10;;;16.40;99.90;;;;;;4125475;28;20162;-92
2022/08/27 05:55:56;;;;;;;10.05;4.95;;;16.50;99.90;;;;;;4128618;28;20186;-92
2022/08/27 05:57:57;;;;;;;8.68;4.10;;;16.70;99.90;;;;;;4140837;28;20538;-91
2022/08/27 06:02:19;;;;;;;7.78;4.72;;;16.90;99.90;;;;;;4155055;28;20221;-92
2022/08/27 06:04:37;;;;;;;9.18;4.78;;;17.10;99.90;;;;;;4156575;28;20172;-92
2022/08/27 06:06:47;;;;;;;11.85;5.18;;;17.20;99.90;;;;;;4153864;28;20200;-93
2022/08/27 06:08:49;;;;;;;12.27;5.68;;;17.00;99.90;;;;;;4138072;28;20196;-92
2022/08/27 06:10:50;;;;;;;17.63;5.90;;;17.10;99.90;;;;;;4138004;28;20530;-92
2022/08/27 06:12:51;;;;;;;15.15;6.15;;;17.00;99.90;;;;;;4123119;28;20169;-93
2022/08/27 06:14:52;;;;;;;15.65;5.78;;;17.00;99.90;;;;;;4139080;28;20177;-91
2022/08/27 06:16:53;;;;;;;13.02;6.25;;;17.00;99.90;;;;;;4153808;28;20240;-92
2022/08/27 06:18:56;;;;;;;12.23;5.97;;;17.00;99.90;;;;;;4137405;28;20630;-93
2022/08/27 06:21:12;;;;;;;13.68;6.30;;;17.10;99.90;;;;;;4127133;28;20646;-92
2022/08/27 06:23:13;;;;;;;13.73;6.25;;;17.20;99.90;;;;;;4126135;28;20273;-93
2022/08/27 06:25:13;;;;;;;11.63;5.30;;;17.50;99.90;;;;;;4143273;28;20220;-93
2022/08/27 06:27:16;;;;;;;11.90;5.25;;;17.60;99.90;;;;;;4137743;28;20174;-92
2022/08/27 06:29:17;;;;;;;16.02;6.07;;;17.60;99.90;;;;;;4158629;28;20232;-91
2022/08/27 06:31:36;;;;;;;11.32;5.70;;;18.30;99.90;;;;;;4140677;28;20177;-91
2022/08/27 06:33:38;;;;;;;15.60;5.85;;;18.50;99.90;;;;;;4138407;28;20181;-91
2022/08/27 06:35:39;;;;;;;14.73;5.63;;;18.10;99.90;;;;;;4141555;28;20178;-92
2022/08/27 06:37:40;;;;;;;14.98;6.50;;;18.10;99.90;;;;;;4137360;28;20172;-91
2022/08/27 06:39:41;;;;;;;12.98;5.90;;;18.00;99.90;;;;;;4141818;28;20212;-94
2022/08/27 06:41:42;;;;;;;17.40;6.20;;;17.80;99.90;;;;;;4125205;28;20179;-92
2022/08/27 06:43:57;;;;;;;16.17;6.25;;;18.00;99.90;;;;;;4144938;28;20200;-92
2022/08/27 06:46:02;;;;;;;16.02;6.20;;;17.60;99.90;;;;;;4157859;28;20196;-92
2022/08/27 06:48:03;;;;;;;14.57;6.00;;;17.60;99.90;;;;;;4159769;28;20653;-93
2022/08/27 06:50:04;;;;;;;16.13;5.75;;;17.60;99.90;;;;;;4143890;28;20292;-93
2022/08/27 06:52:08;;;;;;;13.77;6.38;;;17.50;99.90;;;;;;4124859;28;20150;-95
2022/08/27 06:54:11;;;;;;;12.43;6.57;;;17.50;99.90;;;;;;4126551;28;20186;-92
2022/08/27 06:56:29;;;;;;;14.60;6.13;;;17.40;99.90;;;;;;4140565;28;20233;-91
2022/08/27 06:58:33;;;;;;;12.40;5.78;;;17.50;99.90;;;;;;4130429;28;20186;-94
2022/08/27 07:00:34;;;;;;;14.77;6.60;;;17.70;99.90;;;;;;4162130;28;20161;-96
2022/08/27 07:02:37;;;;;;;14.77;5.78;;;17.50;99.90;;;;;;4166735;28;20280;-92
2022/08/27 07:04:38;;;;;;;11.93;5.65;;;17.50;99.90;;;;;;4166097;28;20228;-94
2022/08/27 07:07:01;;;;;;;13.13;5.63;;;17.60;99.90;;;;;;4148892;28;20175;-93
2022/08/27 07:09:04;;;;;;;14.13;5.45;;;17.90;99.90;;;;;;4165015;28;20185;-95
2022/08/27 07:11:09;;;;;;;18.92;5.40;;;18.00;99.90;;;;;;4144927;28;20215;-96
2022/08/27 07:13:10;;;;;;;10.98;4.75;;;17.90;99.90;;;;;;4164671;28;20152;-93
2022/08/27 07:15:11;;;;;;;13.02;5.00;;;18.40;99.90;;;;;;4149558;28;20169;-92
2022/08/27 07:17:19;;;;;;;12.90;4.82;;;19.40;99.90;;;;;;4132233;28;20170;-94
2022/08/27 07:19:20;;;;;;;9.98;4.28;;;20.70;99.90;;;;;;4146285;28;20193;-94
2022/08/27 07:21:25;;;;;;;10.43;4.53;;;22.00;99.90;;;;;;4147661;28;20188;-96
2022/08/27 07:23:26;;;;;;;10.30;4.43;;;23.30;99.90;;;;;;4128892;28;20182;-96
2022/08/27 07:25:27;;;;;;;9.75;3.63;;;24.40;99.90;;;;;;4148649;28;20287;-95
2022/08/27 07:27:30;;;;;;;10.77;4.28;;;24.00;99.90;;;;;;4128486;28;20205;-96
2022/08/27 07:29:34;;;;;;;9.40;3.65;;;24.10;99.90;;;;;;4147543;28;20203;-95
2022/08/27 07:31:35;;;;;;;10.98;3.60;;;24.70;99.90;;;;;;4140898;28;20640;-96
2022/08/27 07:33:40;;;;;;;9.38;3.08;;;26.20;99.90;;;;;;4125369;28;20178;-96
2022/08/27 07:35:48;;;;;;;13.85;2.50;;;27.50;99.90;;;;;;4141211;28;20181;-96
2022/08/27 07:37:51;;;;;;;10.00;2.35;;;28.10;99.90;;;;;;4137842;28;20185;-95
2022/08/27 07:39:52;;;;;;;9.35;2.47;;;28.10;99.90;;;;;;4152742;28;20192;-95
2022/08/27 07:44:27;;;;;;;10.15;1.92;;;27.30;99.90;;;;;;4141433;28;20200;-95
2022/08/27 07:46:28;;;;;;;7.75;1.73;;;27.60;99.90;;;;;;4140380;28;20213;-96
2022/08/27 07:48:32;;;;;;;5.40;1.77;;;27.80;99.90;;;;;;4136235;28;20204;-94
2022/08/27 07:50:32;;;;;;;7.05;1.48;;;27.80;99.90;;;;;;4140634;28;20281;-96
2022/08/27 07:52:35;;;;;;;8.93;1.42;;;27.20;99.90;;;;;;4123760;28;20182;-96
2022/08/27 07:54:36;;;;;;;8.93;1.80;;;26.90;99.90;;;;;;4137462;28;20546;-96
2022/08/27 07:56:37;;;;;;;12.52;1.70;;;26.40;99.90;;;;;;4121218;28;20178;-94
2022/08/27 07:58:42;;;;;;;7.68;1.60;;;26.20;99.90;;;;;;4136404;28;20304;-95
2022/08/27 08:00:44;;;;;;;7.13;1.50;;;25.40;99.90;;;;;;4136856;28;20184;-95
2022/08/27 08:02:46;;;;;;;8.27;0.90;;;25.40;99.90;;;;;;4153438;28;20161;-94
2022/08/27 08:04:46;;;;;;;7.22;1.25;;;25.30;99.90;;;;;;4135418;28;20509;-94
2022/08/27 08:06:54;;;;;;;4.40;1.17;;;25.50;99.90;;;;;;4122999;28;20184;-95
2022/08/27 08:09:01;;;;;;;3.78;1.00;;;25.80;99.90;;;;;;4154267;28;20187;-95
2022/08/27 08:11:02;;;;;;;5.85;1.20;;;25.80;99.90;;;;;;4135259;28;20184;-95
2022/08/27 08:13:04;;;;;;;4.80;1.05;;;25.60;99.90;;;;;;4133845;28;20169;-95
2022/08/27 08:15:08;;;;;;;5.55;1.10;;;25.40;99.90;;;;;;4137596;28;20177;-94
2022/08/27 08:17:12;;;;;;;6.05;1.15;;;25.50;99.90;;;;;;4136451;28;20685;-95
2022/08/27 08:19:13;;;;;;;4.72;1.13;;;25.20;99.90;;;;;;4119321;28;20575;-94
2022/08/27 08:21:14;;;;;;;7.07;1.23;;;25.20;99.90;;;;;;4135711;28;20232;-95
2022/08/27 08:23:15;;;;;;;4.70;1.13;;;25.10;99.90;;;;;;4136084;28;20228;-93
2022/08/27 08:25:17;;;;;;;10.20;1.33;;;25.40;99.90;;;;;;4134621;28;20208;-95
2022/08/27 08:27:19;;;;;;;6.85;1.08;;;25.60;99.90;;;;;;4135967;28;20189;-94
2022/08/27 08:29:20;;;;;;;10.18;1.30;;;25.20;99.90;;;;;;4118863;28;20233;-94
2022/08/27 08:31:22;;;;;;;8.65;0.90;;;25.50;99.90;;;;;;4118868;28;20248;-93
2022/08/27 08:33:41;;;;;;;3.10;0.98;;;25.50;99.90;;;;;;4134531;28;20174;-95
2022/08/27 08:35:55;;;;;;;;;;;;;;;;;;;;;
2022/08/27 08:38:00;;;;;;;9.70;1.40;;;24.80;99.90;;;;;;4150932;28;20185;-95
2022/08/27 08:40:02;;;;;;;4.03;1.00;;;24.10;99.90;;;;;;4118364;28;20222;-96
2022/08/27 08:42:06;;;;;;;5.35;1.10;;;24.00;99.90;;;;;;4135728;28;20170;-95
2022/08/27 08:44:32;;;;;;;9.70;0.98;;;24.10;99.90;;;;;;4119238;28;20245;-94
2022/08/27 08:46:39;;;;;;;4.95;0.80;;;24.40;99.90;;;;;;4118520;28;20189;-94
2022/08/27 08:48:47;;;;;;;9.27;1.13;;;24.40;99.90;;;;;;4117904;28;20190;-95
2022/08/27 08:50:52;;;;;;;7.05;1.55;;;23.90;99.90;;;;;;4118773;28;20213;-95
2022/08/27 08:53:14;;;;;;;3.90;1.00;;;23.50;99.90;;;;;;4134807;28;20184;-94
2022/08/27 08:56:00;;;;;;;6.53;1.08;;;23.00;99.90;;;;;;4119362;28;20264;-93
2022/08/27 08:58:11;;;;;;;4.80;1.08;;;22.70;99.90;;;;;;4136639;28;20178;-96
2022/08/27 09:00:13;;;;;;;6.18;1.35;;;22.40;99.90;;;;;;4133907;28;20204;-95
2022/08/27 09:02:22;;;;;;;5.85;1.38;;;22.50;99.90;;;;;;4151550;28;20173;-95
2022/08/27 09:04:25;;;;;;;6.63;1.45;;;22.60;99.90;;;;;;4149868;28;20609;-95
2022/08/27 09:06:53;;;;;;;5.07;1.27;;;22.30;99.90;;;;;;4133753;28;20217;-92
2022/08/27 09:08:55;;;;;;;6.22;1.45;;;22.30;99.90;;;;;;4150495;28;20200;-95
2022/08/27 09:11:14;;;;;;;9.95;1.50;;;21.90;99.90;;;;;;4152604;28;20180;-95
2022/08/27 09:13:29;;;;;;;5.82;1.20;;;22.60;99.90;;;;;;4137171;28;20173;-94
2022/08/27 09:15:38;;;;;;;6.43;1.45;;;23.10;99.90;;;;;;4135915;28;20669;-94
2022/08/27 09:17:46;;;;;;;5.43;1.30;;;23.50;99.90;;;;;;4121737;28;20599;-95
2022/08/27 09:19:50;;;;;;;4.75;1.15;;;23.30;99.90;;;;;;4139077;28;20270;-95
2022/08/27 09:22:33;;;;;;;7.72;1.38;;;23.10;99.90;;;;;;4120934;28;20185;-96
2022/08/27 09:24:55;;;;;;;6.57;1.42;;;23.60;99.90;;;;;;4117458;28;20178;-95
2022/08/27 09:26:55;;;;;;;7.03;1.60;;;23.80;99.90;;;;;;4133780;28;20185;-95
2022/08/27 09:29:19;;;;;;;4.82;1.27;;;23.60;99.90;;;;;;4149366;28;20280;-95
2022/08/27 09:31:22;;;;;;;4.55;1.40;;;23.00;99.90;;;;;;4134221;28;20188;-95
2022/08/27 09:33:24;;;;;;;6.85;1.33;;;22.70;99.90;;;;;;4149234;28;20204;-95
2022/08/27 09:35:40;;;;;;;7.65;1.40;;;22.30;99.90;;;;;;4117806;28;20212;-96
2022/08/27 09:37:44;;;;;;;10.40;1.65;;;22.40;99.90;;;;;;4133089;28;20177;-95
2022/08/27 09:40:06;;;;;;;6.15;1.30;;;22.40;99.90;;;;;;4149738;28;20689;-94
2022/08/27 09:42:08;;;;;;;7.57;1.48;;;22.60;99.90;;;;;;4149843;28;20173;-93
2022/08/27 09:44:15;;;;;;;6.15;1.60;;;22.90;99.90;;;;;;4149552;28;20197;-95
2022/08/27 09:46:21;;;;;;;4.45;1.35;;;23.00;99.90;;;;;;4149311;28;20259;-95
2022/08/27 09:48:26;;;;;;;5.65;1.30;;;23.00;99.90;;;;;;4148983;28;20177;-94
2022/08/27 09:50:36;;;;;;;5.22;1.45;;;22.70;99.90;;;;;;4132719;28;20166;-93
2022/08/27 09:52:58;;;;;;;9.38;1.38;;;22.50;99.90;;;;;;4149295;28;20173;-96
2022/08/27 09:54:59;;;;;;;6.10;1.23;;;22.50;99.90;;;;;;4133665;28;20173;-94
2022/08/27 09:57:04;;;;;;;9.52;1.75;;;22.50;99.90;;;;;;4116590;28;20178;-93
2022/08/27 09:59:09;;;;;;;8.73;1.58;;;22.60;99.90;;;;;;4116809;28;20285;-95
2022/08/27 10:01:25;;;;;;;7.85;1.40;;;22.80;99.90;;;;;;4133938;28;20173;-93
2022/08/27 10:03:27;;;;;;;4.25;1.33;;;22.80;99.90;;;;;;4148941;28;20530;-94
2022/08/27 10:05:53;;;;;;;6.35;1.25;;;22.90;99.90;;;;;;4117257;28;20204;-95
2022/08/27 10:08:07;;;;;;;5.82;1.50;;;23.00;99.90;;;;;;4117006;28;20189;-93
2022/08/27 10:10:38;;;;;;;8.45;1.65;;;23.50;99.90;;;;;;4116645;28;20583;-95
2022/08/27 10:12:48;;;;;;;4.10;0.95;;;23.80;99.90;;;;;;4117068;28;20201;-94
2022/08/27 10:14:59;;;;;;;5.93;1.30;;;23.80;99.90;;;;;;4148927;28;20254;-94
2022/08/27 10:17:33;;;;;;;10.68;1.58;;;23.50;99.90;;;;;;4150498;28;20204;-94
2022/08/27 10:19:45;;;;;;;3.20;1.30;;;23.30;99.90;;;;;;4132291;28;20209;-95
2022/08/27 10:21:49;;;;;;;2.88;0.93;;;23.20;99.90;;;;;;4132777;28;20205;-94
2022/08/27 10:24:21;;;;;;;4.22;1.30;;;23.20;99.90;;;;;;4131993;28;20178;-95
2022/08/27 10:26:39;;;;;;;5.22;1.20;;;23.20;99.90;;;;;;4148264;28;20208;-94
2022/08/27 10:28:54;;;;;;;3.75;1.17;;;23.20;99.90;;;;;;4148202;28;20188;-94
2022/08/27 10:31:07;;;;;;;6.30;1.40;;;23.20;99.90;;;;;;4132248;28;20181;-94
2022/08/27 10:33:18;;;;;;;4.57;1.20;;;23.00;99.90;;;;;;4131875;28;20176;-94
2022/08/27 10:35:23;;;;;;;4.88;1.38;;;22.90;99.90;;;;;;4117240;28;20182;-94
2022/08/27 10:37:58;;;;;;;7.22;1.50;;;23.00;99.90;;;;;;4135520;28;20185;-95
2022/08/27 10:40:19;;;;;;;5.35;1.60;;;22.80;99.90;;;;;;4119006;28;20197;-94
2022/08/27 10:42:55;;;;;;;6.95;1.38;;;22.90;99.90;;;;;;4119695;28;20206;-96
2022/08/27 10:45:23;;;;;;;4.18;1.48;;;23.00;99.90;;;;;;4087486;28;20196;-96
2022/08/27 10:47:56;;;;;;;5.43;1.27;;;22.90;99.90;;;;;;4135594;28;20223;-95
2022/08/27 10:50:05;;;;;;;5.00;1.60;;;23.00;99.90;;;;;;4119558;28;20202;-94
2022/08/27 10:52:15;;;;;;;9.98;1.38;;;22.80;99.90;;;;;;4119446;28;20265;-95
2022/08/27 10:54:49;;;;;;;4.47;1.38;;;22.70;99.90;;;;;;4119565;28;20178;-95